createdAt,value
2017-05-05T00:00:35.097Z,0
2017-05-05T00:01:34.877Z,0
2017-05-05T00:02:34.679Z,0
2017-05-05T00:03:34.068Z,0
2017-05-05T00:04:34.104Z,0
2017-05-05T00:05:34.915Z,0
2017-05-05T00:06:34.470Z,0
2017-05-05T00:07:34.834Z,0
2017-05-05T00:08:34.527Z,0
2017-05-05T00:09:34.550Z,0
2017-05-05T00:10:34.839Z,0
2017-05-05T00:11:34.915Z,0
2017-05-05T00:12:34.944Z,0
2017-05-05T00:13:34.659Z,0
2017-05-05T00:14:34.685Z,0
2017-05-05T00:15:34.969Z,0
2017-05-05T00:16:35.081Z,0
2017-05-05T00:17:35.087Z,0
2017-05-05T00:18:35.100Z,0
2017-05-05T00:19:34.827Z,0
2017-05-05T00:20:35.413Z,0
2017-05-05T00:21:34.883Z,0
2017-05-05T00:22:34.901Z,0
2017-05-05T00:23:35.245Z,0
2017-05-05T00:24:49.855Z,0
2017-05-05T00:25:35.260Z,0
2017-05-05T00:26:35.321Z,0
2017-05-05T00:27:35.354Z,0
2017-05-05T00:28:35.372Z,0
2017-05-05T00:29:34.788Z,0
2017-05-05T00:30:35.693Z,0
2017-05-05T00:31:35.457Z,0
2017-05-05T00:32:35.173Z,0
2017-05-05T00:33:35.197Z,0
2017-05-05T00:34:35.568Z,0
2017-05-05T00:35:35.815Z,0
2017-05-05T00:36:35.593Z,0
2017-05-05T00:37:35.308Z,0
2017-05-05T00:38:35.335Z,0
2017-05-05T00:39:35.372Z,0
2017-05-05T00:40:35.654Z,0
2017-05-05T00:41:35.417Z,0
2017-05-05T00:42:35.450Z,0
2017-05-05T00:43:35.156Z,0
2017-05-05T00:44:35.508Z,0
2017-05-05T00:45:36.087Z,0
2017-05-05T00:46:35.558Z,0
2017-05-05T00:47:35.573Z,0
2017-05-05T00:48:35.611Z,0
2017-05-05T00:49:35.975Z,0
2017-05-05T00:50:36.247Z,0
2017-05-05T00:51:36.005Z,0
2017-05-05T00:52:35.407Z,0
2017-05-05T00:53:36.065Z,0
2017-05-05T00:54:35.774Z,0
2017-05-05T00:55:36.056Z,0
2017-05-05T00:56:36.150Z,0
2017-05-05T00:57:36.174Z,0
2017-05-05T00:58:35.577Z,0
2017-05-05T00:59:35.912Z,0
2017-05-05T01:00:36.498Z,0
2017-05-05T01:01:36.268Z,0
2017-05-05T01:02:36.306Z,0
2017-05-05T01:03:36.334Z,0
2017-05-05T01:04:36.356Z,0
2017-05-05T01:05:35.769Z,0
2017-05-05T01:06:36.416Z,0
2017-05-05T01:07:36.446Z,0
2017-05-05T01:08:36.154Z,0
2017-05-05T01:09:36.179Z,0
2017-05-05T01:10:36.523Z,0
2017-05-05T01:11:36.548Z,0
2017-05-05T01:12:36.269Z,0
2017-05-05T01:13:35.666Z,0
2017-05-05T01:14:36.323Z,0
2017-05-05T01:15:36.679Z,0
2017-05-05T01:16:36.684Z,0
2017-05-05T01:17:36.402Z,0
2017-05-05T01:18:36.750Z,0
2017-05-05T01:19:36.463Z,0
2017-05-05T01:20:36.487Z,0
2017-05-05T01:21:36.760Z,0
2017-05-05T01:22:36.858Z,0
2017-05-05T01:23:36.879Z,0
2017-05-05T01:24:36.599Z,0
2017-05-05T01:25:36.932Z,0
2017-05-05T01:26:36.900Z,0
2017-05-05T01:27:36.680Z,0
2017-05-05T01:28:36.699Z,0
2017-05-05T01:29:37.035Z,0
2017-05-05T01:30:37.059Z,0
2017-05-05T01:31:36.725Z,0
2017-05-05T01:32:36.813Z,0
2017-05-05T01:33:36.839Z,0
2017-05-05T01:34:37.183Z,0
2017-05-05T01:35:36.887Z,0
2017-05-05T01:36:36.863Z,0
2017-05-05T01:37:36.629Z,0
2017-05-05T01:38:37.287Z,0
2017-05-05T01:39:37.312Z,0
2017-05-05T01:40:37.027Z,0
2017-05-05T01:41:37.612Z,0
2017-05-05T01:42:37.406Z,0
2017-05-05T01:43:37.114Z,0
2017-05-05T01:44:37.137Z,0
2017-05-05T01:45:36.851Z,0
2017-05-05T01:46:37.753Z,0
2017-05-05T01:47:37.222Z,0
2017-05-05T01:48:37.545Z,0
2017-05-05T01:49:37.590Z,0
2017-05-05T01:50:37.299Z,0
2017-05-05T01:51:37.576Z,0
2017-05-05T01:52:37.669Z,0
2017-05-05T01:53:37.707Z,0
2017-05-05T01:54:37.734Z,0
2017-05-05T01:55:37.124Z,0
2017-05-05T01:56:38.028Z,0
2017-05-05T01:57:37.178Z,0
2017-05-05T01:58:37.517Z,0
2017-05-05T01:59:37.858Z,0
2017-05-05T02:00:37.564Z,0
2017-05-05T02:01:37.851Z,0
2017-05-05T02:02:37.932Z,0
2017-05-05T02:03:37.965Z,0
2017-05-05T02:04:37.370Z,0
2017-05-05T02:05:37.697Z,0
2017-05-05T02:06:37.984Z,0
2017-05-05T02:07:38.075Z,0
2017-05-05T02:08:37.506Z,0
2017-05-05T02:09:37.817Z,0
2017-05-05T02:10:37.843Z,0
2017-05-05T02:11:38.119Z,0
2017-05-05T02:12:38.209Z,0
2017-05-05T02:13:37.926Z,0
2017-05-05T02:14:37.942Z,0
2017-05-05T02:15:38.287Z,0
2017-05-05T02:16:38.580Z,0
2017-05-05T02:17:38.349Z,0
2017-05-05T02:18:38.369Z,0
2017-05-05T02:19:38.414Z,0
2017-05-05T02:20:38.427Z,0
2017-05-05T02:21:38.699Z,0
2017-05-05T02:22:38.481Z,0
2017-05-05T02:23:38.513Z,0
2017-05-05T02:24:38.226Z,0
2017-05-05T02:25:38.277Z,0
2017-05-05T02:26:38.839Z,0
2017-05-05T02:27:38.330Z,0
2017-05-05T02:28:38.649Z,0
2017-05-05T02:29:38.670Z,0
2017-05-05T02:30:38.382Z,0
2017-05-05T02:31:38.655Z,0
2017-05-05T02:32:38.751Z,0
2017-05-05T02:33:38.148Z,0
2017-05-05T02:34:39.016Z,0
2017-05-05T02:35:39.102Z,0
2017-05-05T02:36:39.132Z,0
2017-05-05T02:37:38.784Z,0
2017-05-05T02:38:38.601Z,0
2017-05-05T02:39:38.975Z,0
2017-05-05T02:40:38.338Z,0
2017-05-05T02:41:38.930Z,0
2017-05-05T02:42:39.260Z,0
2017-05-05T02:43:39.199Z,0
2017-05-05T02:44:39.472Z,0
2017-05-05T02:45:39.109Z,0
2017-05-05T02:46:39.382Z,0
2017-05-05T02:47:38.866Z,0
2017-05-05T02:48:40.129Z,0
2017-05-05T02:49:38.933Z,0
2017-05-05T02:50:38.938Z,0
2017-05-05T02:51:39.755Z,0
2017-05-05T02:52:39.037Z,0
2017-05-05T02:53:39.243Z,0
2017-05-05T02:54:39.350Z,0
2017-05-05T02:55:39.378Z,0
2017-05-05T02:56:39.341Z,0
2017-05-05T02:57:39.119Z,0
2017-05-05T02:58:39.464Z,0
2017-05-05T02:59:39.169Z,0
2017-05-05T03:00:39.482Z,0
2017-05-05T03:01:39.480Z,0
2017-05-05T03:02:39.583Z,0
2017-05-05T03:03:39.589Z,0
2017-05-05T03:04:38.988Z,0
2017-05-05T03:05:39.646Z,0
2017-05-05T03:06:40.173Z,0
2017-05-05T03:07:39.751Z,0
2017-05-05T03:08:39.640Z,0
2017-05-05T03:09:39.441Z,0
2017-05-05T03:10:39.469Z,0
2017-05-05T03:11:39.749Z,0
2017-05-05T03:12:39.836Z,0
2017-05-05T03:13:39.243Z,0
2017-05-05T03:14:39.576Z,0
2017-05-05T03:15:39.957Z,0
2017-05-05T03:16:40.245Z,0
2017-05-05T03:17:39.963Z,0
2017-05-05T03:18:40.481Z,0
2017-05-05T03:19:39.399Z,0
2017-05-05T03:20:40.049Z,0
2017-05-05T03:21:40.026Z,0
2017-05-05T03:22:40.098Z,0
2017-05-05T03:23:39.816Z,0
2017-05-05T03:24:39.872Z,0
2017-05-05T03:25:40.185Z,0
2017-05-05T03:26:40.457Z,0
2017-05-05T03:27:40.235Z,0
2017-05-05T03:28:40.283Z,0
2017-05-05T03:29:39.976Z,0
2017-05-05T03:30:40.010Z,0
2017-05-05T03:31:39.960Z,0
2017-05-05T03:32:40.379Z,0
2017-05-05T03:33:39.779Z,0
2017-05-05T03:34:40.433Z,0
2017-05-05T03:35:40.449Z,0
2017-05-05T03:36:40.729Z,0
2017-05-05T03:37:39.885Z,0
2017-05-05T03:38:40.224Z,0
2017-05-05T03:39:40.560Z,0
2017-05-05T03:40:40.300Z,0
2017-05-05T03:41:40.869Z,0
2017-05-05T03:42:40.333Z,0
2017-05-05T03:43:40.669Z,0
2017-05-05T03:44:40.388Z,0
2017-05-05T03:45:40.097Z,0
2017-05-05T03:46:40.690Z,0
2017-05-05T03:47:40.802Z,4
2017-05-05T03:48:40.495Z,4
2017-05-05T03:49:40.523Z,4
2017-05-05T03:50:40.857Z,4
2017-05-05T03:51:41.144Z,0
2017-05-05T03:52:40.914Z,4
2017-05-05T03:53:40.936Z,4
2017-05-05T03:54:40.652Z,4
2017-05-05T03:55:40.993Z,4
2017-05-05T03:56:40.968Z,8
2017-05-05T03:57:40.738Z,8
2017-05-05T03:58:41.075Z,8
2017-05-05T03:59:41.100Z,8
2017-05-05T04:00:41.128Z,8
2017-05-05T04:01:41.413Z,12
2017-05-05T04:02:40.570Z,12
2017-05-05T04:03:40.899Z,12
2017-05-05T04:04:41.502Z,12
2017-05-05T04:05:40.972Z,12
2017-05-05T04:06:41.233Z,12
2017-05-05T04:07:40.697Z,16
2017-05-05T04:08:40.722Z,20
2017-05-05T04:09:41.267Z,20
2017-05-05T04:10:41.400Z,20
2017-05-05T04:11:41.681Z,28
2017-05-05T04:12:41.180Z,28
2017-05-05T04:13:41.169Z,28
2017-05-05T04:14:41.419Z,32
2017-05-05T04:15:41.534Z,36
2017-05-05T04:16:42.037Z,36
2017-05-05T04:17:41.237Z,40
2017-05-05T04:18:41.322Z,36
2017-05-05T04:19:41.319Z,40
2017-05-05T04:20:41.368Z,44
2017-05-05T04:21:41.967Z,44
2017-05-05T04:22:41.981Z,44
2017-05-05T04:23:43.022Z,48
2017-05-05T04:24:42.240Z,52
2017-05-05T04:25:42.252Z,56
2017-05-05T04:26:56.389Z,60
2017-05-05T04:27:42.082Z,64
2017-05-05T04:28:42.158Z,64
2017-05-05T04:29:41.843Z,64
2017-05-05T04:30:42.176Z,72
2017-05-05T04:31:42.112Z,76
2017-05-05T04:32:41.854Z,80
2017-05-05T04:33:42.258Z,84
2017-05-05T04:34:42.055Z,88
2017-05-05T04:35:42.084Z,92
2017-05-05T04:36:42.378Z,96
2017-05-05T04:37:42.067Z,96
2017-05-05T04:38:42.666Z,104
2017-05-05T04:39:42.303Z,108
2017-05-05T04:40:41.295Z,116
2017-05-05T04:41:41.924Z,124
2017-05-05T04:42:42.508Z,128
2017-05-05T04:43:42.977Z,132
2017-05-05T04:44:57.347Z,136
2017-05-05T04:45:42.096Z,136
2017-05-05T04:46:42.820Z,140
2017-05-05T04:47:42.836Z,140
2017-05-05T04:48:42.882Z,132
2017-05-05T04:49:43.145Z,128
2017-05-05T04:50:42.926Z,128
2017-05-05T04:51:52.012Z,128
2017-05-05T04:52:42.901Z,132
2017-05-05T04:53:56.830Z,136
2017-05-05T04:54:42.810Z,136
2017-05-05T04:55:42.618Z,140
2017-05-05T04:56:56.908Z,136
2017-05-05T04:57:42.297Z,136
2017-05-05T04:58:42.697Z,132
2017-05-05T04:59:42.734Z,132
2017-05-05T05:00:42.747Z,132
2017-05-05T05:01:42.780Z,132
2017-05-05T05:02:43.049Z,140
2017-05-05T05:03:42.829Z,144
2017-05-05T05:04:42.542Z,152
2017-05-05T05:05:42.567Z,164
2017-05-05T05:06:42.275Z,176
2017-05-05T05:07:42.257Z,184
2017-05-05T05:08:42.657Z,200
2017-05-05T05:09:42.678Z,212
2017-05-05T05:10:42.704Z,224
2017-05-05T05:11:42.729Z,240
2017-05-05T05:12:43.329Z,256
2017-05-05T05:13:43.104Z,268
2017-05-05T05:14:43.122Z,280
2017-05-05T05:15:42.526Z,288
2017-05-05T05:16:43.173Z,292
2017-05-05T05:17:43.461Z,300
2017-05-05T05:18:42.926Z,300
2017-05-05T05:19:42.951Z,304
2017-05-05T05:20:42.971Z,308
2017-05-05T05:21:43.312Z,320
2017-05-05T05:22:42.964Z,332
2017-05-05T05:23:43.061Z,348
2017-05-05T05:24:43.086Z,364
2017-05-05T05:25:43.426Z,380
2017-05-05T05:26:43.132Z,400
2017-05-05T05:27:43.427Z,432
2017-05-05T05:28:42.880Z,476
2017-05-05T05:29:42.909Z,536
2017-05-05T05:30:43.247Z,588
2017-05-05T05:31:43.584Z,620
2017-05-05T05:32:43.863Z,640
2017-05-05T05:33:43.637Z,656
2017-05-05T05:34:43.670Z,680
2017-05-05T05:35:43.698Z,696
2017-05-05T05:36:43.723Z,700
2017-05-05T05:37:43.376Z,716
2017-05-05T05:38:43.464Z,740
2017-05-05T05:39:43.498Z,768
2017-05-05T05:40:43.830Z,796
2017-05-05T05:41:43.862Z,832
2017-05-05T05:42:43.841Z,864
2017-05-05T05:43:43.284Z,896
2017-05-05T05:44:43.629Z,920
2017-05-05T05:45:43.653Z,932
2017-05-05T05:46:43.679Z,948
2017-05-05T05:47:44.316Z,964
2017-05-05T05:48:44.053Z,996
2017-05-05T05:49:43.765Z,1028
2017-05-05T05:50:44.101Z,1052
2017-05-05T05:51:43.811Z,1068
2017-05-05T05:52:44.411Z,1088
2017-05-05T05:53:43.877Z,1128
2017-05-05T05:54:44.212Z,1188
2017-05-05T05:55:44.273Z,1248
2017-05-05T05:56:43.950Z,1300
2017-05-05T05:57:44.586Z,1336
2017-05-05T05:58:44.008Z,1364
2017-05-05T05:59:44.350Z,1364
2017-05-05T06:00:44.392Z,1352
2017-05-05T06:01:44.410Z,1348
2017-05-05T06:02:44.368Z,1360
2017-05-05T06:03:44.176Z,1372
2017-05-05T06:04:44.529Z,1384
2017-05-05T06:05:44.203Z,1388
2017-05-05T06:06:44.540Z,1400
2017-05-05T06:07:44.830Z,1428
2017-05-05T06:08:44.292Z,1452
2017-05-05T06:09:44.536Z,1480
2017-05-05T06:10:44.347Z,1500
2017-05-05T06:11:44.679Z,1536
2017-05-05T06:12:44.016Z,1612
2017-05-05T06:13:44.122Z,1536
2017-05-05T06:14:44.763Z,1492
2017-05-05T06:15:44.190Z,1708
2017-05-05T06:16:44.818Z,1736
2017-05-05T06:17:44.807Z,1708
2017-05-05T06:18:44.875Z,1720
2017-05-05T06:19:44.894Z,1724
2017-05-05T06:20:44.305Z,1744
2017-05-05T06:21:44.999Z,1752
2017-05-05T06:22:45.227Z,1764
2017-05-05T06:23:44.701Z,1764
2017-05-05T06:24:44.729Z,1768
2017-05-05T06:25:44.749Z,1784
2017-05-05T06:26:44.785Z,1804
2017-05-05T06:27:45.356Z,1844
2017-05-05T06:28:45.163Z,1896
2017-05-05T06:29:44.860Z,1968
2017-05-05T06:30:44.893Z,2044
2017-05-05T06:31:44.914Z,2108
2017-05-05T06:32:45.199Z,2160
2017-05-05T06:33:44.968Z,2216
2017-05-05T06:34:45.322Z,2276
2017-05-05T06:35:45.025Z,2344
2017-05-05T06:36:45.057Z,2336
2017-05-05T06:37:45.646Z,2344
2017-05-05T06:38:44.808Z,2268
2017-05-05T06:39:45.448Z,2152
2017-05-05T06:40:45.482Z,2000
2017-05-05T06:41:45.201Z,1876
2017-05-05T06:42:45.478Z,1740
2017-05-05T06:43:45.569Z,1568
2017-05-05T06:44:45.593Z,1448
2017-05-05T06:45:45.306Z,1436
2017-05-05T06:46:45.338Z,1432
2017-05-05T06:47:45.918Z,1360
2017-05-05T06:48:45.395Z,1300
2017-05-05T06:49:45.432Z,1240
2017-05-05T06:50:45.453Z,1180
2017-05-05T06:51:45.479Z,1188
2017-05-05T06:52:46.057Z,1208
2017-05-05T06:53:45.216Z,1112
2017-05-05T06:54:45.565Z,980
2017-05-05T06:55:45.581Z,920
2017-05-05T06:56:45.616Z,976
2017-05-05T06:57:46.198Z,1080
2017-05-05T06:58:45.983Z,1216
2017-05-05T06:59:46.008Z,1360
2017-05-05T07:00:46.034Z,1436
2017-05-05T07:01:46.062Z,1396
2017-05-05T07:02:46.034Z,1332
2017-05-05T07:03:45.803Z,1304
2017-05-05T07:04:46.151Z,1332
2017-05-05T07:05:46.170Z,1348
2017-05-05T07:06:46.218Z,1348
2017-05-05T07:07:46.485Z,1320
2017-05-05T07:08:45.944Z,1288
2017-05-05T07:09:45.667Z,1280
2017-05-05T07:10:45.997Z,1300
2017-05-05T07:11:46.026Z,1316
2017-05-05T07:12:46.362Z,1312
2017-05-05T07:13:46.080Z,1332
2017-05-05T07:14:46.428Z,1328
2017-05-05T07:15:46.454Z,1340
2017-05-05T07:16:46.480Z,1364
2017-05-05T07:17:46.223Z,1392
2017-05-05T07:18:46.481Z,1400
2017-05-05T07:19:46.560Z,1416
2017-05-05T07:20:46.601Z,1388
2017-05-05T07:21:46.622Z,1332
2017-05-05T07:22:46.646Z,1284
2017-05-05T07:23:46.615Z,1276
2017-05-05T07:24:46.704Z,1300
2017-05-05T07:25:46.738Z,1332
2017-05-05T07:26:46.445Z,1392
2017-05-05T07:27:46.480Z,1436
2017-05-05T07:28:47.075Z,1452
2017-05-05T07:29:46.542Z,1452
2017-05-05T07:30:46.872Z,1456
2017-05-05T07:31:46.585Z,1456
2017-05-05T07:32:46.931Z,1452
2017-05-05T07:33:46.904Z,1460
2017-05-05T07:34:46.672Z,1436
2017-05-05T07:35:47.010Z,1392
2017-05-05T07:36:46.726Z,1356
2017-05-05T07:37:47.062Z,1336
2017-05-05T07:38:47.342Z,1332
2017-05-05T07:39:47.111Z,1372
2017-05-05T07:40:47.147Z,1384
2017-05-05T07:41:46.861Z,1404
2017-05-05T07:42:47.205Z,1432
2017-05-05T07:43:47.175Z,1432
2017-05-05T07:44:46.635Z,1404
2017-05-05T07:45:46.982Z,1376
2017-05-05T07:46:47.013Z,1296
2017-05-05T07:47:46.710Z,1188
2017-05-05T07:48:47.618Z,1132
2017-05-05T07:49:47.398Z,1164
2017-05-05T07:50:47.427Z,1224
2017-05-05T07:51:47.450Z,1276
2017-05-05T07:52:47.478Z,1324
2017-05-05T07:53:47.770Z,1380
2017-05-05T07:54:47.532Z,1336
2017-05-05T07:55:46.949Z,1240
2017-05-05T07:56:47.589Z,1248
2017-05-05T07:57:47.314Z,1280
2017-05-05T07:58:47.590Z,1292
2017-05-05T07:59:47.676Z,1312
2017-05-05T08:00:47.071Z,1276
2017-05-05T08:01:47.761Z,1164
2017-05-05T08:02:47.758Z,1084
2017-05-05T08:03:47.417Z,1056
2017-05-05T08:04:47.820Z,1024
2017-05-05T08:05:47.847Z,1128
2017-05-05T08:06:47.556Z,1272
2017-05-05T08:07:47.574Z,1412
2017-05-05T08:08:47.864Z,1472
2017-05-05T08:09:47.643Z,1544
2017-05-05T08:10:47.972Z,1580
2017-05-05T08:11:48.004Z,1564
2017-05-05T08:12:47.719Z,1536
2017-05-05T08:13:48.003Z,1552
2017-05-05T08:14:48.091Z,1520
2017-05-05T08:15:48.113Z,1388
2017-05-05T08:16:48.152Z,1284
2017-05-05T08:17:48.170Z,1228
2017-05-05T08:18:48.453Z,1192
2017-05-05T08:19:47.921Z,1176
2017-05-05T08:20:48.257Z,1284
2017-05-05T08:21:47.977Z,1520
2017-05-05T08:22:48.314Z,1704
2017-05-05T08:23:48.293Z,1776
2017-05-05T08:24:48.364Z,1800
2017-05-05T08:25:48.392Z,1832
2017-05-05T08:26:48.424Z,1836
2017-05-05T08:27:48.449Z,1748
2017-05-05T08:28:48.726Z,1704
2017-05-05T08:29:48.508Z,1768
2017-05-05T08:30:48.535Z,1856
2017-05-05T08:31:48.552Z,1908
2017-05-05T08:32:48.588Z,1972
2017-05-05T08:33:48.562Z,2000
2017-05-05T08:34:48.333Z,1980
2017-05-05T08:35:48.666Z,1996
2017-05-05T08:36:48.130Z,2036
2017-05-05T08:37:48.721Z,2032
2017-05-05T08:38:48.382Z,1980
2017-05-05T08:39:48.467Z,1896
2017-05-05T08:40:48.507Z,1964
2017-05-05T08:41:48.823Z,2048
2017-05-05T08:42:48.867Z,2156
2017-05-05T08:43:49.151Z,2284
2017-05-05T08:44:48.619Z,2384
2017-05-05T08:45:48.324Z,2388
2017-05-05T08:46:48.665Z,2368
2017-05-05T08:47:48.691Z,2356
2017-05-05T08:48:49.122Z,2392
2017-05-05T08:49:49.058Z,2460
2017-05-05T08:50:48.795Z,2512
2017-05-05T08:51:48.489Z,2536
2017-05-05T08:52:49.146Z,2548
2017-05-05T08:53:49.179Z,2560
2017-05-05T08:54:48.887Z,2552
2017-05-05T08:55:49.214Z,2496
2017-05-05T08:56:49.256Z,2452
2017-05-05T08:57:49.282Z,2448
2017-05-05T08:58:49.570Z,2456
2017-05-05T08:59:49.025Z,2416
2017-05-05T09:00:49.367Z,2432
2017-05-05T09:01:49.391Z,2488
2017-05-05T09:02:49.421Z,2516
2017-05-05T09:03:48.826Z,2528
2017-05-05T09:04:48.849Z,2524
2017-05-05T09:05:49.498Z,2512
2017-05-05T09:06:48.904Z,2544
2017-05-05T09:07:49.253Z,2612
2017-05-05T09:08:49.584Z,2728
2017-05-05T09:09:49.610Z,2772
2017-05-05T09:10:49.651Z,2748
2017-05-05T09:11:49.354Z,2720
2017-05-05T09:12:49.706Z,2716
2017-05-05T09:13:49.413Z,2848
2017-05-05T09:14:49.753Z,3028
2017-05-05T09:15:49.468Z,3236
2017-05-05T09:16:49.811Z,3380
2017-05-05T09:17:49.521Z,3656
2017-05-05T09:18:49.569Z,3840
2017-05-05T09:19:49.579Z,3904
2017-05-05T09:20:49.919Z,3844
2017-05-05T09:21:49.639Z,3816
2017-05-05T09:22:49.661Z,3844
2017-05-05T09:23:50.014Z,3924
2017-05-05T09:24:49.726Z,4100
2017-05-05T09:25:50.059Z,4276
2017-05-05T09:26:49.462Z,4416
2017-05-05T09:27:49.492Z,4528
2017-05-05T09:28:50.144Z,4624
2017-05-05T09:29:49.546Z,4716
2017-05-05T09:30:49.575Z,4808
2017-05-05T09:31:50.227Z,4852
2017-05-05T09:32:50.255Z,4840
2017-05-05T09:33:49.964Z,4832
2017-05-05T09:34:50.566Z,4792
2017-05-05T09:35:50.339Z,4844
2017-05-05T09:36:50.359Z,4916
2017-05-05T09:37:50.408Z,4948
2017-05-05T09:38:50.416Z,5004
2017-05-05T09:39:50.397Z,5168
2017-05-05T09:40:50.159Z,5316
2017-05-05T09:41:50.504Z,5440
2017-05-05T09:42:50.225Z,5480
2017-05-05T09:43:50.568Z,5452
2017-05-05T09:44:50.837Z,5392
2017-05-05T09:45:50.311Z,5520
2017-05-05T09:46:50.638Z,5680
2017-05-05T09:47:50.667Z,5740
2017-05-05T09:48:50.709Z,5736
2017-05-05T09:49:50.985Z,5500
2017-05-05T09:50:50.761Z,5104
2017-05-05T09:51:50.791Z,4764
2017-05-05T09:52:50.507Z,4704
2017-05-05T09:53:50.223Z,4856
2017-05-05T09:54:51.117Z,5120
2017-05-05T09:55:50.589Z,5268
2017-05-05T09:56:50.619Z,5224
2017-05-05T09:57:50.651Z,5144
2017-05-05T09:58:50.676Z,5032
2017-05-05T09:59:50.978Z,4956
2017-05-05T10:00:51.046Z,4968
2017-05-05T10:01:51.078Z,5184
2017-05-05T10:02:51.096Z,5328
2017-05-05T10:03:51.144Z,5216
2017-05-05T10:04:51.093Z,5144
2017-05-05T10:05:50.873Z,4960
2017-05-05T10:06:50.898Z,5152
2017-05-05T10:07:51.238Z,5380
2017-05-05T10:08:50.959Z,5392
2017-05-05T10:09:51.552Z,5388
2017-05-05T10:10:51.013Z,5336
2017-05-05T10:11:51.046Z,5052
2017-05-05T10:12:51.071Z,4900
2017-05-05T10:13:51.099Z,4656
2017-05-05T10:14:51.377Z,4324
2017-05-05T10:15:51.454Z,3908
2017-05-05T10:16:51.174Z,3668
2017-05-05T10:17:51.526Z,3896
2017-05-05T10:18:51.555Z,4360
2017-05-05T10:19:51.520Z,4992
2017-05-05T10:20:51.363Z,5444
2017-05-05T10:21:51.646Z,5664
2017-05-05T10:22:51.669Z,6008
2017-05-05T10:23:51.387Z,6000
2017-05-05T10:24:51.979Z,5728
2017-05-05T10:25:51.441Z,4832
2017-05-05T10:26:51.786Z,3904
2017-05-05T10:27:51.507Z,3420
2017-05-05T10:28:51.845Z,3496
2017-05-05T10:29:51.803Z,3556
2017-05-05T10:30:51.900Z,3972
2017-05-05T10:31:51.621Z,4380
2017-05-05T10:32:51.954Z,4488
2017-05-05T10:33:51.978Z,4600
2017-05-05T10:34:51.956Z,4560
2017-05-05T10:35:51.725Z,4496
2017-05-05T10:36:51.750Z,4276
2017-05-05T10:37:51.785Z,3832
2017-05-05T10:38:51.810Z,3348
2017-05-05T10:39:52.401Z,3004
2017-05-05T10:40:52.189Z,2776
2017-05-05T10:41:52.213Z,2628
2017-05-05T10:42:52.242Z,2460
2017-05-05T10:43:52.276Z,2280
2017-05-05T10:44:52.550Z,2184
2017-05-05T10:45:52.012Z,2384
2017-05-05T10:46:52.032Z,2400
2017-05-05T10:47:52.382Z,2672
2017-05-05T10:48:52.402Z,3056
2017-05-05T10:49:52.435Z,3428
2017-05-05T10:50:52.138Z,3568
2017-05-05T10:51:52.498Z,3796
2017-05-05T10:52:52.523Z,4100
2017-05-05T10:53:52.242Z,4488
2017-05-05T10:54:52.592Z,4808
2017-05-05T10:55:52.309Z,5072
2017-05-05T10:56:52.334Z,5360
2017-05-05T10:57:52.665Z,5968
2017-05-05T10:58:52.694Z,6480
2017-05-05T10:59:52.718Z,6724
2017-05-05T11:00:52.454Z,6696
2017-05-05T11:01:52.784Z,6620
2017-05-05T11:02:52.813Z,6528
2017-05-05T11:03:52.830Z,6360
2017-05-05T11:04:52.553Z,6240
2017-05-05T11:05:52.903Z,6164
2017-05-05T11:06:52.936Z,6076
2017-05-05T11:07:52.953Z,6024
2017-05-05T11:08:52.993Z,6212
2017-05-05T11:09:53.006Z,6396
2017-05-05T11:10:52.723Z,6472
2017-05-05T11:11:52.752Z,6512
2017-05-05T11:12:52.780Z,6460
2017-05-05T11:13:52.810Z,6420
2017-05-05T11:14:53.149Z,6584
2017-05-05T11:15:52.858Z,6332
2017-05-05T11:16:53.211Z,6044
2017-05-05T11:17:53.694Z,5688
2017-05-05T11:18:53.270Z,5540
2017-05-05T11:19:53.297Z,5640
2017-05-05T11:20:52.946Z,5780
2017-05-05T11:21:53.346Z,5792
2017-05-05T11:22:53.064Z,5740
2017-05-05T11:23:53.408Z,5496
2017-05-05T11:24:53.437Z,5192
2017-05-05T11:25:53.722Z,5088
2017-05-05T11:26:53.381Z,5408
2017-05-05T11:27:53.211Z,5972
2017-05-05T11:28:53.557Z,6532
2017-05-05T11:29:53.585Z,7064
2017-05-05T11:30:54.447Z,7384
2017-05-05T11:31:53.644Z,7000
2017-05-05T11:32:53.685Z,7160
2017-05-05T11:33:53.708Z,7744
2017-05-05T11:34:53.106Z,8388
2017-05-05T11:35:54.025Z,9248
2017-05-05T11:36:53.782Z,9192
2017-05-05T11:37:53.817Z,8696
2017-05-05T11:38:53.840Z,11068
2017-05-05T11:39:53.876Z,9412
2017-05-05T11:40:54.150Z,8700
2017-05-05T11:41:53.618Z,9304
2017-05-05T11:42:53.647Z,9492
2017-05-05T11:43:53.990Z,9244
2017-05-05T11:44:53.704Z,8836
2017-05-05T11:45:54.310Z,9384
2017-05-05T11:46:53.762Z,10468
2017-05-05T11:47:53.795Z,11032
2017-05-05T11:48:53.745Z,11720
2017-05-05T11:49:53.853Z,13508
2017-05-05T11:50:54.434Z,12124
2017-05-05T11:51:53.916Z,12888
2017-05-05T11:52:53.622Z,12188
2017-05-05T11:53:53.670Z,11908
2017-05-05T11:54:54.307Z,11820
2017-05-05T11:55:54.281Z,10632
2017-05-05T11:56:54.062Z,10940
2017-05-05T11:57:54.095Z,14088
2017-05-05T11:58:54.428Z,13436
2017-05-05T11:59:54.148Z,11280
2017-05-05T12:00:54.741Z,10452
2017-05-05T12:01:54.518Z,10668
2017-05-05T12:02:54.235Z,10084
2017-05-05T12:03:54.563Z,9696
2017-05-05T12:04:54.292Z,10984
2017-05-05T12:05:54.261Z,12276
2017-05-05T12:06:54.349Z,9824
2017-05-05T12:07:54.690Z,9408
2017-05-05T12:08:54.102Z,10428
2017-05-05T12:09:54.444Z,12568
2017-05-05T12:10:54.727Z,15016
2017-05-05T12:11:54.813Z,11756
2017-05-05T12:12:54.836Z,10428
2017-05-05T12:13:55.100Z,9868
2017-05-05T12:14:54.591Z,9652
2017-05-05T12:15:55.412Z,11752
2017-05-05T12:16:55.116Z,11644
2017-05-05T12:17:54.685Z,13776
2017-05-05T12:18:54.714Z,14136
2017-05-05T12:19:55.045Z,13704
2017-05-05T12:20:55.028Z,12596
2017-05-05T12:21:54.796Z,13528
2017-05-05T12:22:55.194Z,9644
2017-05-05T12:23:55.174Z,10768
2017-05-05T12:24:55.206Z,11224
2017-05-05T12:25:55.687Z,9904
2017-05-05T12:26:55.181Z,12684
2017-05-05T12:28:10.100Z,7488
2017-05-05T12:28:55.014Z,7396
2017-05-05T12:29:55.371Z,6468
2017-05-05T12:30:55.384Z,8300
2017-05-05T12:31:55.100Z,6684
2017-05-05T12:32:55.444Z,6416
2017-05-05T12:33:55.161Z,5804
2017-05-05T12:34:55.190Z,5592
2017-05-05T12:35:55.765Z,5596
2017-05-05T12:36:54.624Z,5788
2017-05-05T12:37:55.817Z,5936
2017-05-05T12:38:55.625Z,5936
2017-05-05T12:39:55.883Z,6052
2017-05-05T12:40:55.698Z,5880
2017-05-05T12:41:56.031Z,5676
2017-05-05T12:42:55.428Z,6512
2017-05-05T12:43:55.774Z,6268
2017-05-05T12:44:55.802Z,5756
2017-05-05T12:45:55.831Z,6616
2017-05-05T12:46:55.861Z,19264
2017-05-05T12:47:55.892Z,41760
2017-05-05T12:48:55.918Z,38464
2017-05-05T12:49:55.941Z,13568
2017-05-05T12:50:55.973Z,14908
2017-05-05T12:51:56.007Z,15040
2017-05-05T12:52:55.731Z,19104
2017-05-05T12:53:55.440Z,18784
2017-05-05T12:54:56.094Z,39360
2017-05-05T12:55:55.502Z,32896
2017-05-05T12:56:56.096Z,39584
2017-05-05T12:57:56.179Z,34016
2017-05-05T12:58:56.209Z,38432
2017-05-05T12:59:56.254Z,19552
2017-05-05T13:00:56.278Z,24128
2017-05-05T13:01:55.630Z,14100
2017-05-05T13:02:56.339Z,12828
2017-05-05T13:03:56.061Z,13000
2017-05-05T13:04:56.081Z,13136
2017-05-05T13:05:56.436Z,39840
2017-05-05T13:06:56.415Z,38464
2017-05-05T13:07:56.183Z,41472
2017-05-05T13:08:56.533Z,9708
2017-05-05T13:09:56.276Z,9132
2017-05-05T13:10:56.294Z,8516
2017-05-05T13:11:56.867Z,13864
2017-05-05T13:12:56.643Z,45792
2017-05-05T13:13:56.680Z,46624
2017-05-05T13:14:56.709Z,46944
2017-05-05T13:15:56.736Z,40320
2017-05-05T13:16:57.027Z,17824
2017-05-05T13:17:56.807Z,10532
2017-05-05T13:18:56.827Z,8684
2017-05-05T13:19:56.864Z,10860
2017-05-05T13:20:56.266Z,18272
2017-05-05T13:21:57.177Z,27968
2017-05-05T13:22:56.648Z,46112
2017-05-05T13:23:56.975Z,45312
2017-05-05T13:24:57.012Z,21376
2017-05-05T13:25:56.765Z,19808
2017-05-05T13:26:57.333Z,14268
2017-05-05T13:27:57.166Z,18020
2017-05-05T13:28:57.139Z,23424
2017-05-05T13:29:56.556Z,53920
2017-05-05T13:30:57.200Z,53184
2017-05-05T13:31:57.490Z,52544
2017-05-05T13:32:57.496Z,52416
2017-05-05T13:33:57.299Z,51232
2017-05-05T13:34:57.332Z,52960
2017-05-05T13:35:57.173Z,56480
2017-05-05T13:36:57.645Z,43968
2017-05-05T13:37:57.094Z,45824
2017-05-05T13:38:57.450Z,22176
2017-05-05T13:39:57.176Z,13824
2017-05-05T13:40:57.200Z,39360
2017-05-05T13:41:57.797Z,61888
2017-05-05T13:42:57.579Z,61920
2017-05-05T13:43:56.990Z,64736
2017-05-05T13:44:57.644Z,68384